Time;durP1;ratioP1;P1;durP2;ratioP2;P2;SDS_P1;SDS_P2;PMS_P1;PMS_P2;Temp;Humidity;BMP_temperature;BMP_pressure;BME280_temperature;BME280_humidity;BME280_pressure;Samples;Min_cycle;Max_cycle;Signal;HPM_P1;HPM_P2
2021/05/12 00:00:09;;;;;;;;;;;;;;;19.28;41.62;97301.03;1804187;79;24386;-90
2021/05/12 00:02:38;;;;;;;;;;;;;;;19.22;41.63;97296.48;1794842;79;20208;-88
2021/05/12 00:05:07;;;;;;;;;;;;;;;19.19;41.60;97299.52;1805950;79;25377;-88
2021/05/12 00:07:39;;;;;;;;;;;;;;;19.21;41.62;97300.95;1805241;79;22058;-88
2021/05/12 00:10:07;;;;;;;;;;;;;;;19.20;41.59;97298.52;1793896;79;26058;-88
2021/05/12 00:12:45;;;;;;;;;;;;;;;19.27;41.63;97303.86;1796832;79;24536;-89
2021/05/12 00:15:12;;;;;;;;;;;;;;;19.26;41.62;97308.84;1798624;79;20210;-89
2021/05/12 00:17:47;;;;;;;;;;;;;;;19.27;41.72;97304.69;1802315;79;24600;-88
2021/05/12 00:20:16;;;;;;;;;;;;;;;19.16;41.74;97306.52;1802609;79;21974;-88
2021/05/12 00:22:49;;;;;;;;;;;;;;;18.97;41.81;97303.16;1806816;78;25964;-88
2021/05/12 00:25:11;;;;;;;;;;;;;;;18.84;41.86;97303.82;1789540;79;24420;-88
2021/05/12 00:27:38;;;;;;;;;;;;;;;18.72;41.97;97298.17;1798912;79;20229;-87
2021/05/12 00:30:07;;;;;;;;;;;;;;;18.53;42.12;97292.11;1804364;79;24501;-88
2021/05/12 00:32:33;;;;;;;;;;;;;;;18.47;42.21;97288.88;1808447;79;21972;-88
2021/05/12 00:35:02;;;;;;;;;;;;;;;18.45;42.38;97287.39;1808055;79;21731;-88
2021/05/12 00:37:28;;;;;;;;;;;;;;;18.42;42.53;97287.28;1780930;79;24480;-88
2021/05/12 00:39:54;;;;;;;;;;;;;;;18.32;42.67;97279.62;1797899;79;20238;-88
2021/05/12 00:42:20;;;;;;;;;;;;;;;18.25;42.82;97281.34;1800150;79;20293;-88
2021/05/12 00:44:46;;;;;;;;;;;;;;;18.31;42.93;97279.80;1807186;79;22056;-88
2021/05/12 00:47:12;;;;;;;;;;;;;;;18.21;43.01;97277.43;1806519;79;21050;-88
2021/05/12 00:49:38;;;;;;;;;;;;;;;18.13;43.13;97272.71;1808918;79;20313;-88
2021/05/12 00:52:04;;;;;;;;;;;;;;;18.08;43.23;97277.73;1805898;79;20398;-88
2021/05/12 00:54:32;;;;;;;;;;;;;;;18.05;43.35;97278.11;1803237;79;24529;-88
2021/05/12 00:57:00;;;;;;;;;;;;;;;18.02;43.46;97273.16;1807943;79;21965;-89
2021/05/12 00:59:32;;;;;;;;;;;;;;;17.98;43.61;97274.04;1803707;79;25996;-89
2021/05/12 01:01:56;;;;;;;;;;;;;;;17.95;43.72;97276.53;1800655;79;25130;-89
2021/05/12 01:04:22;;;;;;;;;;;;;;;18.01;43.81;97267.05;1798150;79;20218;-89
2021/05/12 01:06:52;;;;;;;;;;;;;;;18.05;43.91;97266.20;1809138;79;20237;-89
2021/05/12 01:09:18;;;;;;;;;;;;;;;18.11;43.96;97264.94;1797842;79;22226;-89
2021/05/12 01:11:44;;;;;;;;;;;;;;;18.08;44.01;97261.84;1805920;79;21062;-89
2021/05/12 01:14:10;;;;;;;;;;;;;;;18.02;44.05;97260.75;1801413;79;24397;-89
2021/05/12 01:16:36;;;;;;;;;;;;;;;18.03;44.12;97260.25;1804823;78;20484;-89
2021/05/12 01:19:05;;;;;;;;;;;;;;;17.97;44.20;97252.04;1809591;79;25391;-89
2021/05/12 01:21:31;;;;;;;;;;;;;;;17.84;44.23;97251.02;1803197;79;22112;-89
2021/05/12 01:23:58;;;;;;;;;;;;;;;17.72;44.28;97252.48;1806916;79;25988;-88
2021/05/12 01:26:24;;;;;;;;;;;;;;;17.60;44.42;97256.06;1804237;79;24444;-88
2021/05/12 01:28:51;;;;;;;;;;;;;;;17.48;44.62;97262.25;1800580;77;20311;-89
2021/05/12 01:31:34;;;;;;;;;;;;;;;17.33;44.84;97268.00;1806053;79;24883;-89
2021/05/12 01:34:01;;;;;;;;;;;;;;;17.12;45.05;97262.06;1793746;79;22063;-89
2021/05/12 01:36:29;;;;;;;;;;;;;;;16.93;45.25;97259.86;1808600;79;25883;-89
2021/05/12 01:39:04;;;;;;;;;;;;;;;16.90;45.46;97258.91;1800822;79;24423;-88
2021/05/12 01:41:32;;;;;;;;;;;;;;;16.99;45.65;97257.02;1805092;79;20207;-89
2021/05/12 01:43:58;;;;;;;;;;;;;;;17.09;45.85;97257.11;1796593;79;24494;-89
2021/05/12 01:46:24;;;;;;;;;;;;;;;17.15;45.96;97248.97;1810725;78;20807;-88
2021/05/12 01:48:56;;;;;;;;;;;;;;;17.15;46.07;97251.61;1809549;78;21032;-89
2021/05/12 01:51:28;;;;;;;;;;;;;;;17.09;46.15;97251.00;1772305;80;25168;-89
2021/05/12 01:53:54;;;;;;;;;;;;;;;17.05;46.29;97253.18;1742763;82;20214;-88
2021/05/12 01:56:20;;;;;;;;;;;;;;;16.94;46.40;97247.48;1742929;82;20207;-88
2021/05/12 01:58:46;;;;;;;;;;;;;;;16.76;46.51;97259.64;1742361;82;21952;-88
2021/05/12 02:01:12;;;;;;;;;;;;;;;16.54;46.69;97257.25;1761158;81;25939;-88
2021/05/12 02:03:38;;;;;;;;;;;;;;;16.30;46.87;97252.93;1747048;82;24463;-88
2021/05/12 02:06:13;;;;;;;;;;;;;;;16.19;47.11;97249.34;1744115;81;20817;-88
2021/05/12 02:08:44;;;;;;;;;;;;;;;16.20;47.27;97250.17;1743734;80;24544;-89
2021/05/12 02:11:10;;;;;;;;;;;;;;;16.21;47.41;97243.38;1746316;82;21965;-89
2021/05/12 02:13:36;;;;;;;;;;;;;;;16.18;47.56;97238.45;1739561;82;21008;-88
2021/05/12 02:16:04;;;;;;;;;;;;;;;16.16;47.67;97240.42;1749534;81;24515;-89
2021/05/12 02:18:31;;;;;;;;;;;;;;;16.07;47.83;97240.64;1750572;81;20246;-89
2021/05/12 02:20:57;;;;;;;;;;;;;;;15.94;48.02;97245.12;1750439;81;24623;-88
2021/05/12 02:23:31;;;;;;;;;;;;;;;15.87;48.17;97242.33;1748920;81;22141;-88
2021/05/12 02:25:57;;;;;;;;;;;;;;;15.82;48.37;97235.91;1752059;81;26152;-89
2021/05/12 02:28:23;;;;;;;;;;;;;;;15.75;48.55;97238.42;1749017;81;24394;-88
2021/05/12 02:30:50;;;;;;;;;;;;;;;15.66;48.73;97237.27;1751382;81;20262;-88
2021/05/12 02:33:22;;;;;;;;;;;;;;;15.53;48.94;97233.03;1752094;81;25380;-88
2021/05/12 02:35:48;;;;;;;;;;;;;;;15.35;49.11;97227.41;1757482;81;21963;-88
2021/05/12 02:38:14;;;;;;;;;;;;;;;15.21;49.33;97220.19;1752688;81;26187;-88
2021/05/12 02:40:40;;;;;;;;;;;;;;;15.11;49.49;97223.45;1751250;81;20250;-88
2021/05/12 02:43:07;;;;;;;;;;;;;;;15.09;49.68;97225.45;1749046;81;20204;-88
2021/05/12 02:45:33;;;;;;;;;;;;;;;15.01;49.83;97216.21;1754353;81;25196;-87
2021/05/12 02:48:04;;;;;;;;;;;;;;;14.85;50.07;97217.52;1744363;81;22790;-88
2021/05/12 02:50:36;;;;;;;;;;;;;;;14.68;50.29;97213.22;1748670;81;25948;-88
2021/05/12 02:53:04;;;;;;;;;;;;;;;14.51;50.56;97210.55;1747858;81;24439;-88
2021/05/12 02:55:36;;;;;;;;;;;;;;;14.39;50.79;97211.04;1748601;81;20272;-88
2021/05/12 02:58:05;;;;;;;;;;;;;;;14.38;50.99;97206.27;1741472;81;24629;-88
2021/05/12 03:00:30;;;;;;;;;;;;;;;14.40;51.15;97205.59;1745906;81;22160;-88
2021/05/12 03:02:57;;;;;;;;;;;;;;;14.42;51.29;97206.27;1747588;81;21018;-88
2021/05/12 03:05:23;;;;;;;;;;;;;;;14.49;51.43;97202.50;1746137;81;24599;-87
2021/05/12 03:07:55;;;;;;;;;;;;;;;14.60;51.54;97203.02;1746147;81;20571;-87
2021/05/12 03:10:22;;;;;;;;;;;;;;;14.73;51.58;97199.89;1746768;81;24540;-89
2021/05/12 03:12:48;;;;;;;;;;;;;;;14.96;51.57;97193.48;1725324;81;23574;-89
2021/05/12 03:15:15;;;;;;;;;;;;;;;15.12;51.64;97193.48;1750040;81;26049;-89
2021/05/12 03:17:44;;;;;;;;;;;;;;;15.27;51.55;97185.26;1747521;81;24426;-89
2021/05/12 03:20:11;;;;;;;;;;;;;;;15.51;51.54;97188.33;1745974;81;20227;-89
2021/05/12 03:22:37;;;;;;;;;;;;;;;15.71;51.44;97186.19;1748110;81;24687;-89
2021/05/12 03:25:06;;;;;;;;;;;;;;;15.86;51.37;97187.12;1747634;81;22187;-88
2021/05/12 03:27:38;;;;;;;;;;;;;;;15.97;51.28;97185.42;1748132;81;27186;-89
2021/05/12 03:30:07;;;;;;;;;;;;;;;16.13;51.22;97184.53;1747604;81;24407;-90
2021/05/12 03:32:34;;;;;;;;;;;;;;;16.26;51.13;97188.24;1747688;81;20573;-89
2021/05/12 03:35:00;;;;;;;;;;;;;;;16.36;51.04;97186.73;1747622;81;24715;-89
2021/05/12 03:37:26;;;;;;;;;;;;;;;16.41;51.05;97185.70;1750101;81;20311;-89
2021/05/12 03:39:51;;;;;;;;;;;;;;;16.35;51.10;97185.08;1749554;81;21131;-89
2021/05/12 03:42:18;;;;;;;;;;;;;;;16.31;51.09;97189.86;1746942;81;24332;-89
2021/05/12 03:44:43;;;;;;;;;;;;;;;16.27;51.10;97187.75;1747155;81;20254;-89
2021/05/12 03:47:10;;;;;;;;;;;;;;;16.19;51.16;97189.95;1742377;81;20330;-89
2021/05/12 03:49:38;;;;;;;;;;;;;;;16.05;51.19;97189.83;1743678;81;22029;-89
2021/05/12 03:52:04;;;;;;;;;;;;;;;15.93;51.28;97188.59;1745573;81;26637;-89
2021/05/12 03:54:30;;;;;;;;;;;;;;;15.83;51.38;97184.80;1750048;81;24655;-89
2021/05/12 03:56:56;;;;;;;;;;;;;;;15.70;51.51;97188.49;1743929;81;20859;-89
2021/05/12 03:59:23;;;;;;;;;;;;;;;15.59;51.61;97193.63;1745398;81;24558;-89
2021/05/12 04:01:49;;;;;;;;;;;;;;;15.56;51.70;97192.63;1748091;81;22073;-89
2021/05/12 04:04:18;;;;;;;;;;;;;;;15.56;51.79;97187.85;1744833;81;21021;-90
2021/05/12 04:06:45;;;;;;;;;;;;;;;15.60;51.86;97193.14;1748696;81;24505;-89
2021/05/12 04:09:13;;;;;;;;;;;;;;;15.66;51.94;97195.07;1751776;81;20630;-89
2021/05/12 04:11:44;;;;;;;;;;;;;;;15.75;52.03;97196.22;1747700;81;24748;-88
2021/05/12 04:14:10;;;;;;;;;;;;;;;15.81;52.11;97193.41;1740731;81;21952;-88
2021/05/12 04:16:35;;;;;;;;;;;;;;;15.88;52.18;97196.49;1710828;82;20918;-89
2021/05/12 04:19:03;;;;;;;;;;;;;;;15.96;52.27;97194.33;1746237;81;20212;-89
2021/05/12 04:21:32;;;;;;;;;;;;;;;16.01;52.36;97194.64;1744241;81;20545;-89
2021/05/12 04:23:58;;;;;;;;;;;;;;;16.05;52.45;97195.11;1748728;81;24522;-89
2021/05/12 04:26:24;;;;;;;;;;;;;;;16.07;52.52;97194.45;1744286;81;22917;-89
2021/05/12 04:28:51;;;;;;;;;;;;;;;16.14;52.60;97194.10;1744416;81;21192;-89
2021/05/12 04:31:22;;;;;;;;;;;;;;;16.25;52.65;97193.72;1749251;80;24592;-89
2021/05/12 04:33:48;;;;;;;;;;;;;;;16.36;52.66;97191.19;1747518;81;20223;-89
2021/05/12 04:36:14;;;;;;;;;;;;;;;16.62;52.79;97191.72;1746675;81;20684;-89
2021/05/12 04:38:40;;;;;;;;;;;;;;;16.89;52.88;97196.97;1739974;81;21971;-89
2021/05/12 04:41:06;;;;;;;;;;;;;;;17.02;52.82;97194.56;1752014;81;25912;-89
2021/05/12 04:43:33;;;;;;;;;;;;;;;17.14;52.78;97191.30;1749990;81;24401;-89
2021/05/12 04:46:02;;;;;;;;;;;;;;;17.28;52.72;97184.42;1746794;81;20224;-90
2021/05/12 04:48:36;;;;;;;;;;;;;;;17.42;52.64;97188.91;1745430;81;25246;-89
2021/05/12 04:51:02;;;;;;;;;;;;;;;17.54;52.58;97187.97;1741345;81;22062;-89
2021/05/12 04:53:32;;;;;;;;;;;;;;;17.77;52.61;97184.77;1721224;81;21070;-89
2021/05/12 04:55:58;;;;;;;;;;;;;;;17.91;52.54;97183.94;1751079;81;24415;-89
2021/05/12 04:58:24;;;;;;;;;;;;;;;17.96;52.48;97188.67;1743289;81;20293;-89
2021/05/12 05:00:50;;;;;;;;;;;;;;;18.00;52.38;97185.18;1746873;81;20257;-88
2021/05/12 05:03:16;;;;;;;;;;;;;;;18.03;52.33;97184.80;1739889;81;21897;-89
2021/05/12 05:05:48;;;;;;;;;;;;;;;18.08;52.36;97186.39;1748951;81;21005;-89
2021/05/12 05:08:14;;;;;;;;;;;;;;;18.14;52.38;97177.71;1744837;81;24556;-89
2021/05/12 05:10:43;;;;;;;;;;;;;;;18.23;52.44;97180.56;1743688;81;20864;-89
2021/05/12 05:13:18;;;;;;;;;;;;;;;18.32;52.54;97187.41;1745216;81;25353;-89
2021/05/12 05:15:45;;;;;;;;;;;;;;;18.36;52.59;97182.05;1749537;81;22235;-89
2021/05/12 05:18:12;;;;;;;;;;;;;;;18.46;52.53;97185.22;1740443;82;25987;-89
2021/05/12 05:20:38;;;;;;;;;;;;;;;18.56;52.48;97188.41;1756821;81;24652;-89
2021/05/12 05:23:07;;;;;;;;;;;;;;;18.66;52.43;97188.92;1745007;81;20570;-89
2021/05/12 05:25:33;;;;;;;;;;;;;;;18.76;52.50;97194.73;1742711;81;24605;-89
2021/05/12 05:28:00;;;;;;;;;;;;;;;18.92;52.60;97195.02;1750507;81;22004;-89
2021/05/12 05:30:26;;;;;;;;;;;;;;;19.01;52.62;97197.02;1749109;81;25999;-88
2021/05/12 05:32:59;;;;;;;;;;;;;;;19.09;52.73;97191.61;1746993;81;24407;-89
2021/05/12 05:35:26;;;;;;;;;;;;;;;19.12;52.73;97197.84;1747148;81;20273;-89
2021/05/12 05:37:52;;;;;;;;;;;;;;;19.15;52.83;97198.77;1750818;81;24524;-89
2021/05/12 05:40:18;;;;;;;;;;;;;;;19.18;52.87;97197.08;1751595;81;20267;-89
2021/05/12 05:42:44;;;;;;;;;;;;;;;19.17;52.75;97198.91;1747449;81;25995;-89
2021/05/12 05:45:10;;;;;;;;;;;;;;;19.20;52.76;97192.41;1745537;81;24386;-89
2021/05/12 05:47:36;;;;;;;;;;;;;;;19.26;52.87;97190.80;1744643;80;20276;-89
2021/05/12 05:50:03;;;;;;;;;;;;;;;19.27;52.88;97195.09;1743915;81;24641;-89
2021/05/12 05:52:29;;;;;;;;;;;;;;;19.29;52.86;97194.41;1742951;81;21977;-90
2021/05/12 05:54:55;;;;;;;;;;;;;;;19.31;52.97;97190.53;1740743;81;25922;-89
2021/05/12 05:57:21;;;;;;;;;;;;;;;19.33;52.99;97199.14;1739984;81;20407;-89
2021/05/12 05:59:47;;;;;;;;;;;;;;;19.36;53.02;97192.64;1741176;81;20210;-89
2021/05/12 06:02:13;;;;;;;;;;;;;;;19.37;53.11;97191.60;1739009;81;24605;-89
2021/05/12 06:04:39;;;;;;;;;;;;;;;19.39;53.07;97192.24;1740815;81;20291;-89
2021/05/12 06:07:05;;;;;;;;;;;;;;;19.40;52.92;97190.73;1740575;81;21080;-89
2021/05/12 06:09:36;;;;;;;;;;;;;;;19.41;52.86;97187.58;1703232;81;20310;-89
2021/05/12 06:12:02;;;;;;;;;;;;;;;19.35;52.77;97179.05;1740466;81;20194;-89
2021/05/12 06:14:29;;;;;;;;;;;;;;;19.46;52.72;97187.34;1738010;81;24657;-89
2021/05/12 06:16:55;;;;;;;;;;;;;;;19.51;52.67;97185.43;1744867;81;21981;-89
2021/05/12 06:19:21;;;;;;;;;;;;;;;19.58;52.72;97179.67;1738295;81;25953;-89
2021/05/12 06:21:47;;;;;;;;;;;;;;;19.64;52.75;97176.21;1740874;81;24413;-89
2021/05/12 06:24:13;;;;;;;;;;;;;;;19.74;52.83;97177.21;1741864;81;20238;-89
2021/05/12 06:26:40;;;;;;;;;;;;;;;19.80;52.85;97168.47;1738820;81;24520;-89
2021/05/12 06:29:09;;;;;;;;;;;;;;;19.87;52.90;97172.78;1744286;81;22273;-89
2021/05/12 06:31:35;;;;;;;;;;;;;;;19.98;52.96;97176.21;1739828;81;25890;-89
2021/05/12 06:34:02;;;;;;;;;;;;;;;20.05;52.90;97175.74;1742823;81;20588;-89
2021/05/12 06:36:28;;;;;;;;;;;;;;;20.14;52.91;97174.23;1738388;81;20328;-90
2021/05/12 06:38:54;;;;;;;;;;;;;;;20.23;52.93;97168.58;1741680;81;20270;-89
2021/05/12 06:41:20;;;;;;;;;;;;;;;20.32;52.90;97168.73;1741920;81;20262;-89
2021/05/12 06:43:48;;;;;;;;;;;;;;;20.42;52.92;97163.03;1740732;81;26013;-90
2021/05/12 06:46:15;;;;;;;;;;;;;;;20.51;52.91;97159.70;1741289;81;24606;-89
2021/05/12 06:48:41;;;;;;;;;;;;;;;20.61;52.93;97165.45;1737425;81;20640;-89
2021/05/12 06:51:07;;;;;;;;;;;;;;;20.70;52.88;97156.25;1732940;82;25285;-90
2021/05/12 06:53:34;;;;;;;;;;;;;;;20.81;52.78;97152.49;1737089;82;21951;-90
2021/05/12 06:56:02;;;;;;;;;;;;;;;20.92;52.71;97146.27;1733006;82;25953;-89
2021/05/12 06:58:32;;;;;;;;;;;;;;;21.03;52.67;97149.64;1732034;81;24658;-89
2021/05/12 07:00:58;;;;;;;;;;;;;;;21.15;52.66;97150.71;1730812;81;20573;-89
2021/05/12 07:03:27;;;;;;;;;;;;;;;21.25;52.53;97147.12;1730550;82;20259;-89
2021/05/12 07:05:54;;;;;;;;;;;;;;;21.35;52.39;97150.69;1737976;82;22312;-89
2021/05/12 07:08:20;;;;;;;;;;;;;;;21.48;52.25;97154.69;1707449;82;26004;-90
2021/05/12 07:10:46;;;;;;;;;;;;;;;21.59;51.98;97154.05;1734021;82;24508;-90
2021/05/12 07:13:13;;;;;;;;;;;;;;;21.68;51.79;97142.96;1734600;82;20358;-90
2021/05/12 07:15:39;;;;;;;;;;;;;;;21.80;51.61;97143.14;1733132;81;25283;-89
2021/05/12 07:18:05;;;;;;;;;;;;;;;21.91;51.48;97141.16;1721503;81;22008;-90
2021/05/12 07:20:33;;;;;;;;;;;;;;;22.02;51.36;97139.22;1737111;81;26003;-89
2021/05/12 07:23:04;;;;;;;;;;;;;;;22.15;51.17;97134.87;1729692;82;25252;-89
2021/05/12 07:25:30;;;;;;;;;;;;;;;22.24;50.84;97130.92;1733147;82;20277;-90
2021/05/12 07:27:56;;;;;;;;;;;;;;;22.34;50.40;97132.61;1740033;82;24417;-90
2021/05/12 07:30:26;;;;;;;;;;;;;;;22.50;50.09;97134.78;1733241;81;22002;-89
2021/05/12 07:32:52;;;;;;;;;;;;;;;22.60;50.08;97135.13;1732672;82;25913;-89
2021/05/12 07:35:18;;;;;;;;;;;;;;;22.73;49.99;97132.93;1731601;82;20254;-89
2021/05/12 07:37:44;;;;;;;;;;;;;;;22.85;49.87;97136.03;1737701;81;20567;-89
2021/05/12 07:40:10;;;;;;;;;;;;;;;22.97;49.59;97137.46;1733375;82;24556;-89
2021/05/12 07:42:39;;;;;;;;;;;;;;;23.15;49.12;97132.71;1739873;81;22060;-89
2021/05/12 07:45:05;;;;;;;;;;;;;;;23.21;48.96;97133.17;1734558;81;26521;-89
2021/05/12 07:47:31;;;;;;;;;;;;;;;23.26;48.85;97132.00;1734486;82;24557;-89
2021/05/12 07:49:57;;;;;;;;;;;;;;;23.34;48.73;97128.55;1730841;82;20566;-89
2021/05/12 07:52:23;;;;;;;;;;;;;;;23.46;48.55;97135.33;1725900;81;20302;-89
2021/05/12 07:54:52;;;;;;;;;;;;;;;23.52;48.16;97125.10;1725224;82;22506;-89
2021/05/12 07:57:18;;;;;;;;;;;;;;;23.63;47.64;97132.39;1755321;81;25924;-89
2021/05/12 07:59:44;;;;;;;;;;;;;;;23.73;47.07;97121.19;1744290;81;24413;-90
2021/05/12 08:02:10;;;;;;;;;;;;;;;23.91;46.63;97133.22;1755698;81;20285;-90
2021/05/12 08:04:37;;;;;;;;;;;;;;;24.05;46.17;97127.22;1760237;81;24557;-89
2021/05/12 08:07:03;;;;;;;;;;;;;;;24.14;45.63;97129.88;1750175;81;21978;-90
2021/05/12 08:09:30;;;;;;;;;;;;;;;24.25;45.41;97121.13;1763642;81;26057;-90
2021/05/12 08:11:56;;;;;;;;;;;;;;;24.35;44.84;97123.25;1763738;81;24497;-90
2021/05/12 08:14:22;;;;;;;;;;;;;;;24.45;44.33;97121.67;1762065;81;20571;-90
2021/05/12 08:16:48;;;;;;;;;;;;;;;24.54;43.84;97114.98;1761611;81;20205;-90
2021/05/12 08:19:14;;;;;;;;;;;;;;;24.63;43.68;97115.98;1763935;81;22651;-90
2021/05/12 08:21:41;;;;;;;;;;;;;;;24.67;43.38;97113.13;1762934;80;25919;-90
2021/05/12 08:24:07;;;;;;;;;;;;;;;24.73;42.89;97110.37;1758211;81;24590;-90
2021/05/12 08:26:33;;;;;;;;;;;;;;;24.81;42.58;97106.03;1764029;81;20245;-90
2021/05/12 08:29:00;;;;;;;;;;;;;;;24.87;42.50;97102.45;1763467;81;24660;-89
2021/05/12 08:31:30;;;;;;;;;;;;;;;24.93;42.59;97098.85;1763703;81;22764;-90
2021/05/12 08:34:00;;;;;;;;;;;;;;;25.03;42.74;97094.81;1755285;81;26644;-90
2021/05/12 08:36:26;;;;;;;;;;;;;;;25.10;42.27;97097.66;1765236;81;24598;-90
2021/05/12 08:38:52;;;;;;;;;;;;;;;25.18;41.77;97093.31;1755100;81;20189;-90
2021/05/12 08:41:19;;;;;;;;;;;;;;;25.26;41.52;97092.95;1758116;81;25285;-90
2021/05/12 08:43:45;;;;;;;;;;;;;;;25.35;41.50;97090.23;1758875;81;21992;-90
2021/05/12 08:46:12;;;;;;;;;;;;;;;25.45;41.34;97093.66;1750349;81;26733;-90
2021/05/12 08:48:38;;;;;;;;;;;;;;;25.50;41.00;97083.05;1730980;81;24471;-89
2021/05/12 08:51:06;;;;;;;;;;;;;;;25.56;41.12;97085.35;1737288;81;20299;-89
2021/05/12 08:53:32;;;;;;;;;;;;;;;25.56;40.88;97079.99;1731785;81;24564;-89
2021/05/12 08:56:01;;;;;;;;;;;;;;;25.56;40.66;97074.63;1732936;82;22043;-90
2021/05/12 08:58:28;;;;;;;;;;;;;;;25.53;40.45;97073.75;1736957;82;25915;-90
2021/05/12 09:00:55;;;;;;;;;;;;;;;25.54;40.27;97071.33;1733727;81;24406;-89
2021/05/12 09:03:21;;;;;;;;;;;;;;;25.56;40.05;97066.08;1730627;81;20365;-90
2021/05/12 09:05:56;;;;;;;;;;;;;;;25.53;39.75;97070.52;1722842;82;24667;-90
2021/05/12 09:08:25;;;;;;;;;;;;;;;25.42;39.44;97072.68;1727145;82;21965;-90
2021/05/12 09:10:52;;;;;;;;;;;;;;;25.41;39.30;97075.91;1722912;81;26228;-90
2021/05/12 09:13:28;;;;;;;;;;;;;;;25.49;39.35;97074.72;1732690;81;24374;-90
2021/05/12 09:15:54;;;;;;;;;;;;;;;25.50;39.38;97071.52;1737137;82;20233;-90
2021/05/12 09:18:22;;;;;;;;;;;;;;;25.50;39.43;97065.64;1735886;82;24725;-90
2021/05/12 09:20:48;;;;;;;;;;;;;;;25.58;39.45;97062.65;1738924;81;22145;-90
2021/05/12 09:23:17;;;;;;;;;;;;;;;25.64;39.22;97056.88;1732889;81;20778;-90
2021/05/12 09:25:55;;;;;;;;;;;;;;;25.65;39.00;97061.97;1735674;82;24675;-90
2021/05/12 09:28:22;;;;;;;;;;;;;;;25.66;38.87;97058.25;1736571;81;20235;-89
2021/05/12 09:30:50;;;;;;;;;;;;;;;25.73;38.75;97058.94;1735901;81;24557;-90
2021/05/12 09:33:27;;;;;;;;;;;;;;;25.77;38.34;97059.27;1736997;81;21960;-90
2021/05/12 09:35:54;;;;;;;;;;;;;;;25.85;38.29;97053.55;1736803;81;25946;-90
2021/05/12 09:38:24;;;;;;;;;;;;;;;25.91;38.01;97051.79;1740590;81;24508;-90
2021/05/12 09:41:04;;;;;;;;;;;;;;;25.94;37.69;97055.33;1733408;81;20590;-90
2021/05/12 09:43:31;;;;;;;;;;;;;;;25.95;37.29;97055.09;1738006;81;24595;-90
2021/05/12 09:46:16;;;;;;;;;;;;;;;26.02;37.13;97046.92;1738337;81;21985;-90
2021/05/12 09:48:50;;;;;;;;;;;;;;;26.01;36.80;97047.45;1732291;81;26684;-89
2021/05/12 09:51:18;;;;;;;;;;;;;;;26.06;36.84;97048.06;1708662;82;24475;-89
2021/05/12 09:54:05;;;;;;;;;;;;;;;26.13;36.74;97049.53;1729861;82;20194;-89
2021/05/12 09:56:35;;;;;;;;;;;;;;;26.08;36.33;97049.44;1736910;82;25259;-89
2021/05/12 09:59:03;;;;;;;;;;;;;;;26.10;36.69;97049.20;1734037;81;22059;-89
2021/05/12 10:01:45;;;;;;;;;;;;;;;26.14;36.90;97044.98;1731479;82;26046;-90
2021/05/12 10:04:26;;;;;;;;;;;;;;;26.19;36.92;97045.89;1737110;82;24431;-89
2021/05/12 10:06:54;;;;;;;;;;;;;;;26.27;36.84;97041.23;1739590;82;20219;-90
2021/05/12 10:09:28;;;;;;;;;;;;;;;26.35;37.06;97032.27;1733311;81;24575;-88
2021/05/12 10:12:02;;;;;;;;;;;;;;;26.42;37.08;97034.27;1740085;81;21394;-90
2021/05/12 10:14:32;;;;;;;;;;;;;;;26.55;37.15;97042.03;1731675;81;26214;-89
2021/05/12 10:17:05;;;;;;;;;;;;;;;26.55;36.95;97034.51;1737666;82;24751;-90
2021/05/12 10:19:36;;;;;;;;;;;;;;;26.68;36.91;97031.48;1746051;81;20282;-90
2021/05/12 10:22:03;;;;;;;;;;;;;;;26.81;36.82;97025.00;1733541;82;24556;-89
2021/05/12 10:24:30;;;;;;;;;;;;;;;26.90;36.66;97024.37;1734004;81;21926;-90
2021/05/12 10:26:57;;;;;;;;;;;;;;;26.96;36.52;97025.26;1737408;81;25942;-90
2021/05/12 10:29:23;;;;;;;;;;;;;;;26.93;36.34;97029.79;1716196;81;24409;-90
2021/05/12 10:31:52;;;;;;;;;;;;;;;26.84;35.85;97030.67;1735614;82;20219;-90
2021/05/12 10:34:19;;;;;;;;;;;;;;;26.75;35.56;97024.09;1737376;81;24530;-89
2021/05/12 10:36:45;;;;;;;;;;;;;;;26.68;35.33;97028.80;1731015;82;22167;-90
2021/05/12 10:39:11;;;;;;;;;;;;;;;26.60;35.14;97022.52;1734666;81;26026;-90
2021/05/12 10:41:39;;;;;;;;;;;;;;;26.57;35.10;97026.48;1737513;81;20312;-90
2021/05/12 10:44:13;;;;;;;;;;;;;;;26.57;35.01;97021.64;1734303;82;20534;-89
2021/05/12 10:46:47;;;;;;;;;;;;;;;26.58;34.99;97015.22;1714584;81;25090;-90
2021/05/12 10:49:14;;;;;;;;;;;;;;;26.58;34.77;97015.22;1740391;81;22318;-90
2021/05/12 10:51:47;;;;;;;;;;;;;;;26.60;34.63;97008.57;1722022;82;26197;-90
2021/05/12 10:54:13;;;;;;;;;;;;;;;26.60;34.50;97011.25;1724097;82;24501;-88
2021/05/12 10:56:41;;;;;;;;;;;;;;;26.61;34.33;97006.17;1733385;81;20319;-89
2021/05/12 10:59:18;;;;;;;;;;;;;;;26.67;34.34;97010.28;1736807;81;25384;-89
2021/05/12 11:01:48;;;;;;;;;;;;;;;26.71;34.24;97001.50;1741055;82;21991;-89
2021/05/12 11:04:19;;;;;;;;;;;;;;;26.80;34.14;97006.73;1737460;82;26050;-89
2021/05/12 11:06:47;;;;;;;;;;;;;;;26.87;33.92;97003.39;1732046;81;25150;-89
2021/05/12 11:09:17;;;;;;;;;;;;;;;26.94;33.85;96998.67;1737082;82;20223;-90
2021/05/12 11:11:47;;;;;;;;;;;;;;;26.99;33.77;97003.30;1734884;81;24679;-90
2021/05/12 11:14:25;;;;;;;;;;;;;;;26.97;33.55;96994.14;1737913;81;22189;-90
2021/05/12 11:17:10;;;;;;;;;;;;;;;26.98;33.37;96998.45;1736391;82;26039;-90
2021/05/12 11:19:46;;;;;;;;;;;;;;;26.86;33.13;96988.30;1736370;81;24507;-90
2021/05/12 11:22:28;;;;;;;;;;;;;;;26.82;32.99;96984.49;1742518;82;20329;-90
2021/05/12 11:24:58;;;;;;;;;;;;;;;26.86;33.06;96978.09;1737391;82;25266;-90
2021/05/12 11:27:33;;;;;;;;;;;;;;;26.96;33.23;96981.77;1740025;81;22260;-89
2021/05/12 11:32:23;;;;;;;;;;;;;;;27.09;32.70;96969.06;1721507;81;24394;-90
2021/05/12 11:34:50;;;;;;;;;;;;;;;27.11;32.50;96968.30;1726945;82;20584;-90
2021/05/12 11:37:22;;;;;;;;;;;;;;;27.03;32.05;96963.62;1735482;81;24723;-90
2021/05/12 11:39:48;;;;;;;;;;;;;;;26.99;31.78;96965.18;1737232;81;22074;-90
2021/05/12 11:42:21;;;;;;;;;;;;;;;26.93;31.57;96949.23;1735879;81;26001;-90
2021/05/12 11:44:50;;;;;;;;;;;;;;;26.95;31.61;96955.16;1730465;80;24480;-90
2021/05/12 11:47:29;;;;;;;;;;;;;;;27.02;31.59;96947.22;1726636;82;20256;-90
2021/05/12 11:49:55;;;;;;;;;;;;;;;27.06;31.49;96951.02;1724136;81;24722;-90
2021/05/12 11:52:28;;;;;;;;;;;;;;;27.15;31.46;96946.59;1739131;81;20263;-90
2021/05/12 11:54:54;;;;;;;;;;;;;;;27.14;31.29;96939.05;1736360;81;26102;-90
2021/05/12 11:57:20;;;;;;;;;;;;;;;27.13;31.24;96942.80;1728326;81;25219;-90
2021/05/12 11:59:46;;;;;;;;;;;;;;;27.16;31.13;96945.00;1728948;82;20771;-90
2021/05/12 12:02:13;;;;;;;;;;;;;;;27.10;30.66;96945.99;1745713;81;24712;-90
2021/05/12 12:07:18;;;;;;;;;;;;;;;26.92;30.23;96936.86;1734069;81;26764;-90
2021/05/12 12:09:44;;;;;;;;;;;;;;;26.90;30.12;96927.70;1741377;81;24531;-90
2021/05/12 12:12:11;;;;;;;;;;;;;;;26.92;30.07;96928.81;1741483;81;20271;-90
2021/05/12 12:14:37;;;;;;;;;;;;;;;27.01;30.26;96930.81;1738784;81;24518;-90
2021/05/12 12:17:10;;;;;;;;;;;;;;;27.13;30.20;96928.55;1776909;79;22199;-90
2021/05/12 12:19:36;;;;;;;;;;;;;;;27.09;29.75;96924.74;1798801;79;25990;-90
2021/05/12 12:22:03;;;;;;;;;;;;;;;27.10;29.54;96923.69;1797488;79;24499;-90
2021/05/12 12:24:33;;;;;;;;;;;;;;;27.08;29.13;96922.59;1779169;79;20537;-90
2021/05/12 12:26:59;;;;;;;;;;;;;;;27.11;29.27;96914.05;1795079;79;23755;-90
2021/05/12 12:29:27;;;;;;;;;;;;;;;27.17;29.34;96920.27;1801852;79;22046;-90
2021/05/12 12:31:58;;;;;;;;;;;;;;;27.18;29.11;96923.24;1789951;79;26574;-90
2021/05/12 12:34:26;;;;;;;;;;;;;;;27.17;28.93;96916.23;1791268;79;24380;-90
2021/05/12 12:36:54;;;;;;;;;;;;;;;27.20;28.83;96914.41;1770094;79;20290;-87
2021/05/12 12:39:21;;;;;;;;;;;;;;;27.28;28.92;96909.94;1720639;82;24619;-87
2021/05/12 12:41:51;;;;;;;;;;;;;;;27.34;28.81;96908.94;1754036;81;22151;-87
2021/05/12 12:44:19;;;;;;;;;;;;;;;27.31;28.64;96905.42;1761370;80;25993;-87
2021/05/12 12:46:47;;;;;;;;;;;;;;;27.36;28.76;96906.82;1757537;81;24422;-87
2021/05/12 12:49:15;;;;;;;;;;;;;;;27.39;28.78;96900.41;1757384;80;20208;-90
2021/05/12 12:51:41;;;;;;;;;;;;;;;27.37;28.58;96901.20;1755726;80;24467;-89
2021/05/12 12:54:07;;;;;;;;;;;;;;;27.37;28.56;96895.02;1765571;81;22083;-89
2021/05/12 12:56:34;;;;;;;;;;;;;;;27.39;28.64;96893.69;1760115;81;26580;-89